sensor_id;sensor_type;location;lat;lon;timestamp;pressure;altitude;pressure_sealevel;temperature;humidity
76285;BME280;71676;50.998;7.098;2024-01-27T00:02:06;102839.94;;;4.46;57.00
76285;BME280;71676;50.998;7.098;2024-01-27T00:04:32;102846.88;;;4.49;57.12
76285;BME280;71676;50.998;7.098;2024-01-27T00:07:02;102850.06;;;4.45;56.92
76285;BME280;71676;50.998;7.098;2024-01-27T00:09:29;102849.25;;;4.46;57.12
76285;BME280;71676;50.998;7.098;2024-01-27T00:11:56;102847.31;;;4.42;56.93
76285;BME280;71676;50.998;7.098;2024-01-27T00:14:22;102852.97;;;4.38;57.06
76285;BME280;71676;50.998;7.098;2024-01-27T00:16:49;102852.22;;;4.39;57.15
76285;BME280;71676;50.998;7.098;2024-01-27T00:19:15;102849.22;;;4.33;57.08
76285;BME280;71676;50.998;7.098;2024-01-27T00:21:42;102851.47;;;4.28;57.21
76285;BME280;71676;50.998;7.098;2024-01-27T00:24:10;102853.03;;;4.26;57.58
76285;BME280;71676;50.998;7.098;2024-01-27T00:26:37;102859.72;;;4.24;57.30
76285;BME280;71676;50.998;7.098;2024-01-27T00:29:02;102851.88;;;4.21;57.40
76285;BME280;71676;50.998;7.098;2024-01-27T00:31:29;102864.63;;;4.21;57.39
76285;BME280;71676;50.998;7.098;2024-01-27T00:33:56;102858.44;;;4.18;57.49
76285;BME280;71676;50.998;7.098;2024-01-27T00:36:22;102860.88;;;4.16;57.46
76285;BME280;71676;50.998;7.098;2024-01-27T00:38:49;102858.13;;;4.13;57.37
76285;BME280;71676;50.998;7.098;2024-01-27T00:41:17;102864.91;;;4.13;57.46
76285;BME280;71676;50.998;7.098;2024-01-27T00:43:45;102862.81;;;4.07;57.42
76285;BME280;71676;50.998;7.098;2024-01-27T00:46:11;102864.28;;;4.04;57.52
76285;BME280;71676;50.998;7.098;2024-01-27T00:48:38;102857.00;;;3.97;57.51
76285;BME280;71676;50.998;7.098;2024-01-27T00:51:05;102868.22;;;3.99;57.67
76285;BME280;71676;50.998;7.098;2024-01-27T00:53:31;102870.31;;;3.93;57.36
76285;BME280;71676;50.998;7.098;2024-01-27T00:55:58;102872.13;;;3.94;57.33
76285;BME280;71676;50.998;7.098;2024-01-27T00:58:26;102880.31;;;3.90;57.40
76285;BME280;71676;50.998;7.098;2024-01-27T01:00:52;102881.13;;;3.89;57.45
76285;BME280;71676;50.998;7.098;2024-01-27T01:03:19;102874.16;;;3.86;57.45
76285;BME280;71676;50.998;7.098;2024-01-27T01:05:46;102889.03;;;3.80;57.37
76285;BME280;71676;50.998;7.098;2024-01-27T01:08:12;102884.50;;;3.76;57.38
76285;BME280;71676;50.998;7.098;2024-01-27T01:10:39;102882.63;;;3.74;57.63
76285;BME280;71676;50.998;7.098;2024-01-27T01:13:05;102883.41;;;3.73;57.58
76285;BME280;71676;50.998;7.098;2024-01-27T01:15:33;102888.41;;;3.71;57.56
76285;BME280;71676;50.998;7.098;2024-01-27T01:18:03;102883.75;;;3.66;57.53
76285;BME280;71676;50.998;7.098;2024-01-27T01:20:30;102881.59;;;3.59;57.59
76285;BME280;71676;50.998;7.098;2024-01-27T01:22:57;102890.91;;;3.58;57.57
76285;BME280;71676;50.998;7.098;2024-01-27T01:25:24;102890.00;;;3.58;57.59
76285;BME280;71676;50.998;7.098;2024-01-27T01:27:51;102887.16;;;3.53;57.61
76285;BME280;71676;50.998;7.098;2024-01-27T01:30:18;102875.22;;;3.40;57.70
76285;BME280;71676;50.998;7.098;2024-01-27T01:32:46;102882.53;;;3.47;57.82
76285;BME280;71676;50.998;7.098;2024-01-27T01:35:12;102879.88;;;3.46;57.73
76285;BME280;71676;50.998;7.098;2024-01-27T01:37:39;102886.53;;;3.44;57.68
76285;BME280;71676;50.998;7.098;2024-01-27T01:40:07;102886.31;;;3.41;57.60
76285;BME280;71676;50.998;7.098;2024-01-27T01:42:33;102888.66;;;3.38;57.94
76285;BME280;71676;50.998;7.098;2024-01-27T01:45:00;102882.34;;;3.33;57.66
76285;BME280;71676;50.998;7.098;2024-01-27T01:47:27;102892.44;;;3.31;57.93
76285;BME280;71676;50.998;7.098;2024-01-27T01:49:55;102894.44;;;3.24;58.02
76285;BME280;71676;50.998;7.098;2024-01-27T01:52:23;102897.31;;;3.28;57.80
76285;BME280;71676;50.998;7.098;2024-01-27T01:54:50;102869.63;;;3.10;57.78
76285;BME280;71676;50.998;7.098;2024-01-27T01:57:16;102858.13;;;3.03;57.68
76285;BME280;71676;50.998;7.098;2024-01-27T01:59:43;102891.56;;;3.19;57.78
76285;BME280;71676;50.998;7.098;2024-01-27T02:02:11;102889.81;;;3.18;58.03
76285;BME280;71676;50.998;7.098;2024-01-27T02:04:41;102888.69;;;3.15;57.92
76285;BME280;71676;50.998;7.098;2024-01-27T02:07:09;102895.44;;;3.14;57.78
76285;BME280;71676;50.998;7.098;2024-01-27T02:09:36;102898.56;;;3.10;57.95
76285;BME280;71676;50.998;7.098;2024-01-27T02:12:03;102901.75;;;3.08;57.87
76285;BME280;71676;50.998;7.098;2024-01-27T02:14:30;102898.78;;;3.02;57.79
76285;BME280;71676;50.998;7.098;2024-01-27T02:16:56;102890.38;;;2.91;58.06
76285;BME280;71676;50.998;7.098;2024-01-27T02:19:23;102892.25;;;2.94;57.85
76285;BME280;71676;50.998;7.098;2024-01-27T02:21:50;102900.00;;;2.95;57.82
76285;BME280;71676;50.998;7.098;2024-01-27T02:24:18;102898.25;;;2.94;58.04
76285;BME280;71676;50.998;7.098;2024-01-27T02:26:44;102897.03;;;2.89;57.99
76285;BME280;71676;50.998;7.098;2024-01-27T02:29:11;102898.47;;;2.86;57.82
76285;BME280;71676;50.998;7.098;2024-01-27T02:31:38;102901.00;;;2.86;58.13
76285;BME280;71676;50.998;7.098;2024-01-27T02:34:05;102892.41;;;2.84;57.90
76285;BME280;71676;50.998;7.098;2024-01-27T02:36:32;102895.69;;;2.83;57.84
76285;BME280;71676;50.998;7.098;2024-01-27T02:38:58;102901.00;;;2.74;58.08
76285;BME280;71676;50.998;7.098;2024-01-27T02:41:27;102902.91;;;2.77;58.04
76285;BME280;71676;50.998;7.098;2024-01-27T02:43:53;102907.78;;;2.74;58.02
76285;BME280;71676;50.998;7.098;2024-01-27T02:46:20;102895.59;;;2.70;57.95
76285;BME280;71676;50.998;7.098;2024-01-27T02:48:47;102894.47;;;2.66;58.08
76285;BME280;71676;50.998;7.098;2024-01-27T02:51:18;102892.50;;;2.62;58.17
76285;BME280;71676;50.998;7.098;2024-01-27T02:53:45;102907.00;;;2.63;58.00
76285;BME280;71676;50.998;7.098;2024-01-27T02:56:12;102901.91;;;2.63;58.09
76285;BME280;71676;50.998;7.098;2024-01-27T02:58:40;102898.25;;;2.60;58.01
76285;BME280;71676;50.998;7.098;2024-01-27T03:01:07;102898.91;;;2.57;58.22
76285;BME280;71676;50.998;7.098;2024-01-27T03:03:34;102898.69;;;2.54;57.91
76285;BME280;71676;50.998;7.098;2024-01-27T03:06:00;102904.56;;;2.53;58.26
76285;BME280;71676;50.998;7.098;2024-01-27T03:08:27;102905.22;;;2.51;58.20
76285;BME280;71676;50.998;7.098;2024-01-27T03:10:54;102903.97;;;2.46;57.98
76285;BME280;71676;50.998;7.098;2024-01-27T03:13:20;102909.75;;;2.43;58.13
76285;BME280;71676;50.998;7.098;2024-01-27T03:15:48;102906.97;;;2.40;58.12
76285;BME280;71676;50.998;7.098;2024-01-27T03:18:15;102912.81;;;2.39;58.08
76285;BME280;71676;50.998;7.098;2024-01-27T03:20:41;102914.28;;;2.36;58.29
76285;BME280;71676;50.998;7.098;2024-01-27T03:23:08;102921.66;;;2.33;58.33
76285;BME280;71676;50.998;7.098;2024-01-27T03:25:35;102921.56;;;2.31;58.61
76285;BME280;71676;50.998;7.098;2024-01-27T03:28:01;102920.34;;;2.26;58.27
76285;BME280;71676;50.998;7.098;2024-01-27T03:30:28;102918.34;;;2.22;58.39
76285;BME280;71676;50.998;7.098;2024-01-27T03:32:56;102920.88;;;2.22;58.54
76285;BME280;71676;50.998;7.098;2024-01-27T03:35:22;102919.13;;;2.21;58.44
76285;BME280;71676;50.998;7.098;2024-01-27T03:37:49;102915.69;;;2.21;58.76
76285;BME280;71676;50.998;7.098;2024-01-27T03:40:16;102924.84;;;2.19;58.41
76285;BME280;71676;50.998;7.098;2024-01-27T03:42:43;102921.97;;;2.14;58.39
76285;BME280;71676;50.998;7.098;2024-01-27T03:45:10;102923.72;;;2.15;58.34
76285;BME280;71676;50.998;7.098;2024-01-27T03:47:37;102927.06;;;2.14;58.50
76285;BME280;71676;50.998;7.098;2024-01-27T03:50:06;102925.19;;;2.12;58.41
76285;BME280;71676;50.998;7.098;2024-01-27T03:52:33;102911.97;;;2.06;58.39
76285;BME280;71676;50.998;7.098;2024-01-27T03:55:00;102927.25;;;2.06;58.39
76285;BME280;71676;50.998;7.098;2024-01-27T03:57:27;102929.78;;;2.06;58.37
76285;BME280;71676;50.998;7.098;2024-01-27T03:59:54;102929.44;;;2.01;58.50
76285;BME280;71676;50.998;7.098;2024-01-27T04:02:20;102928.44;;;1.99;58.37
76285;BME280;71676;50.998;7.098;2024-01-27T04:04:47;102934.97;;;1.95;58.53
76285;BME280;71676;50.998;7.098;2024-01-27T04:07:15;102931.41;;;1.93;58.87
76285;BME280;71676;50.998;7.098;2024-01-27T04:09:42;102938.00;;;1.91;58.77
76285;BME280;71676;50.998;7.098;2024-01-27T04:12:08;102936.13;;;1.89;58.84
76285;BME280;71676;50.998;7.098;2024-01-27T04:14:36;102941.09;;;1.87;58.92
76285;BME280;71676;50.998;7.098;2024-01-27T04:17:03;102939.19;;;1.85;58.71
76285;BME280;71676;50.998;7.098;2024-01-27T04:19:29;102950.16;;;1.84;58.89
76285;BME280;71676;50.998;7.098;2024-01-27T04:21:56;102944.81;;;1.81;58.76
76285;BME280;71676;50.998;7.098;2024-01-27T04:24:24;102946.47;;;1.80;58.94
76285;BME280;71676;50.998;7.098;2024-01-27T04:26:51;102943.69;;;1.77;58.64
76285;BME280;71676;50.998;7.098;2024-01-27T04:29:17;102953.75;;;1.76;58.84
76285;BME280;71676;50.998;7.098;2024-01-27T04:31:44;102960.50;;;1.75;58.81
76285;BME280;71676;50.998;7.098;2024-01-27T04:34:10;102961.16;;;1.73;59.23
76285;BME280;71676;50.998;7.098;2024-01-27T04:36:37;102953.91;;;1.67;58.35
76285;BME280;71676;50.998;7.098;2024-01-27T04:39:04;102955.44;;;1.65;59.15
76285;BME280;71676;50.998;7.098;2024-01-27T04:41:32;102963.22;;;1.67;58.82
76285;BME280;71676;50.998;7.098;2024-01-27T04:43:58;102953.56;;;1.63;58.92
76285;BME280;71676;50.998;7.098;2024-01-27T04:46:25;102960.31;;;1.62;58.92
76285;BME280;71676;50.998;7.098;2024-01-27T04:48:52;102955.88;;;1.60;59.06
76285;BME280;71676;50.998;7.098;2024-01-27T04:51:18;102959.06;;;1.57;58.89
76285;BME280;71676;50.998;7.098;2024-01-27T04:53:45;102965.94;;;1.58;58.87
76285;BME280;71676;50.998;7.098;2024-01-27T04:56:11;102959.72;;;1.55;58.95
76285;BME280;71676;50.998;7.098;2024-01-27T04:58:39;102964.69;;;1.53;59.15
76285;BME280;71676;50.998;7.098;2024-01-27T05:01:06;102959.47;;;1.52;59.05
76285;BME280;71676;50.998;7.098;2024-01-27T05:03:33;102962.03;;;1.52;58.99
76285;BME280;71676;50.998;7.098;2024-01-27T05:06:00;102960.25;;;1.51;59.41
76285;BME280;71676;50.998;7.098;2024-01-27T05:08:27;102962.53;;;1.48;58.93
76285;BME280;71676;50.998;7.098;2024-01-27T05:10:54;102959.88;;;1.46;59.22
76285;BME280;71676;50.998;7.098;2024-01-27T05:13:20;102960.78;;;1.47;58.78
76285;BME280;71676;50.998;7.098;2024-01-27T05:15:48;102954.44;;;1.42;59.20
76285;BME280;71676;50.998;7.098;2024-01-27T05:18:15;102960.53;;;1.44;59.07
76285;BME280;71676;50.998;7.098;2024-01-27T05:20:41;102933.91;;;1.29;59.17
76285;BME280;71676;50.998;7.098;2024-01-27T05:23:08;102948.34;;;1.40;58.86
76285;BME280;71676;50.998;7.098;2024-01-27T05:25:35;102921.75;;;1.25;59.06
76285;BME280;71676;50.998;7.098;2024-01-27T05:28:01;102949.91;;;1.38;59.20
76285;BME280;71676;50.998;7.098;2024-01-27T05:30:28;102953.97;;;1.36;59.46
76285;BME280;71676;50.998;7.098;2024-01-27T05:32:56;102949.53;;;1.33;59.31
76285;BME280;71676;50.998;7.098;2024-01-27T05:35:22;102959.56;;;1.32;59.51
76285;BME280;71676;50.998;7.098;2024-01-27T05:37:49;102958.34;;;1.27;59.06
76285;BME280;71676;50.998;7.098;2024-01-27T05:40:16;102960.63;;;1.24;59.36
76285;BME280;71676;50.998;7.098;2024-01-27T05:42:43;102961.50;;;1.24;59.30
76285;BME280;71676;50.998;7.098;2024-01-27T05:45:10;102958.22;;;1.25;59.77
76285;BME280;71676;50.998;7.098;2024-01-27T05:47:37;102963.91;;;1.23;59.61
76285;BME280;71676;50.998;7.098;2024-01-27T05:50:06;102961.38;;;1.23;59.40
76285;BME280;71676;50.998;7.098;2024-01-27T05:52:34;102963.81;;;1.21;59.75
76285;BME280;71676;50.998;7.098;2024-01-27T05:55:01;102961.91;;;1.19;59.39
76285;BME280;71676;50.998;7.098;2024-01-27T05:57:28;102966.09;;;1.18;59.43
76285;BME280;71676;50.998;7.098;2024-01-27T05:59:54;102962.66;;;1.18;59.52
76285;BME280;71676;50.998;7.098;2024-01-27T06:02:21;102966.75;;;1.16;59.14
76285;BME280;71676;50.998;7.098;2024-01-27T06:04:47;102958.00;;;1.12;59.57
76285;BME280;71676;50.998;7.098;2024-01-27T06:07:15;102958.63;;;1.10;59.72
76285;BME280;71676;50.998;7.098;2024-01-27T06:09:42;102961.03;;;1.08;59.67
76285;BME280;71676;50.998;7.098;2024-01-27T06:12:09;102954.19;;;1.07;59.79
76285;BME280;71676;50.998;7.098;2024-01-27T06:14:35;102949.75;;;1.05;59.59
76285;BME280;71676;50.998;7.098;2024-01-27T06:17:04;102956.38;;;1.03;59.68
76285;BME280;71676;50.998;7.098;2024-01-27T06:19:30;102948.88;;;1.04;59.66
76285;BME280;71676;50.998;7.098;2024-01-27T06:21:57;102964.38;;;0.97;60.14
76285;BME280;71676;50.998;7.098;2024-01-27T06:24:25;102961.72;;;0.96;60.05
76285;BME280;71676;50.998;7.098;2024-01-27T06:26:52;102953.97;;;0.94;60.23
76285;BME280;71676;50.998;7.098;2024-01-27T06:29:19;102910.53;;;0.60;60.41
76285;BME280;71676;50.998;7.098;2024-01-27T06:31:46;102947.94;;;0.82;60.31
76285;BME280;71676;50.998;7.098;2024-01-27T06:34:12;102967.22;;;0.90;60.42
76285;BME280;71676;50.998;7.098;2024-01-27T06:36:39;102960.47;;;0.91;60.17
76285;BME280;71676;50.998;7.098;2024-01-27T06:39:06;102959.97;;;0.85;59.94
76285;BME280;71676;50.998;7.098;2024-01-27T06:41:36;102980.91;;;0.92;59.91
76285;BME280;71676;50.998;7.098;2024-01-27T06:44:03;102980.91;;;0.92;60.08
76285;BME280;71676;50.998;7.098;2024-01-27T06:46:29;102984.22;;;0.91;60.13
76285;BME280;71676;50.998;7.098;2024-01-27T06:48:56;102986.38;;;0.87;60.67
76285;BME280;71676;50.998;7.098;2024-01-27T06:51:23;102984.59;;;0.86;60.21
76285;BME280;71676;50.998;7.098;2024-01-27T06:53:49;102980.78;;;0.81;60.08
76285;BME280;71676;50.998;7.098;2024-01-27T06:56:16;102983.59;;;0.84;60.18
76285;BME280;71676;50.998;7.098;2024-01-27T06:58:44;102990.94;;;0.81;60.17
76285;BME280;71676;50.998;7.098;2024-01-27T07:01:11;102991.09;;;0.72;62.26
76285;BME280;71676;50.998;7.098;2024-01-27T07:03:37;102996.06;;;0.71;61.72
76285;BME280;71676;50.998;7.098;2024-01-27T07:06:05;103008.75;;;0.61;63.30
76285;BME280;71676;50.998;7.098;2024-01-27T07:08:32;103012.31;;;0.63;63.58
76285;BME280;71676;50.998;7.098;2024-01-27T07:10:59;102984.38;;;0.42;62.98
76285;BME280;71676;50.998;7.098;2024-01-27T07:13:25;103012.06;;;0.60;62.82
76285;BME280;71676;50.998;7.098;2024-01-27T07:15:56;102999.38;;;0.60;62.75
76285;BME280;71676;50.998;7.098;2024-01-27T07:18:22;103001.25;;;0.62;62.33
76285;BME280;71676;50.998;7.098;2024-01-27T07:20:49;102975.75;;;0.50;62.07
76285;BME280;71676;50.998;7.098;2024-01-27T07:23:16;103013.06;;;0.62;62.50
76285;BME280;71676;50.998;7.098;2024-01-27T07:25:43;103013.31;;;0.54;63.46
76285;BME280;71676;50.998;7.098;2024-01-27T07:28:09;103014.34;;;0.57;63.23
76285;BME280;71676;50.998;7.098;2024-01-27T07:30:36;103021.97;;;0.57;64.74
76285;BME280;71676;50.998;7.098;2024-01-27T07:33:05;103014.44;;;0.38;64.21
76285;BME280;71676;50.998;7.098;2024-01-27T07:35:31;103014.22;;;0.45;63.39
76285;BME280;71676;50.998;7.098;2024-01-27T07:37:58;103017.09;;;0.29;66.23
76285;BME280;71676;50.998;7.098;2024-01-27T07:40:25;103017.13;;;0.39;65.75
76285;BME280;71676;50.998;7.098;2024-01-27T07:42:51;103022.31;;;0.41;65.35
76285;BME280;71676;50.998;7.098;2024-01-27T07:45:18;103026.91;;;0.45;65.53
76285;BME280;71676;50.998;7.098;2024-01-27T07:47:45;103019.53;;;0.48;63.51
76285;BME280;71676;50.998;7.098;2024-01-27T07:50:13;103024.75;;;0.60;64.02
76285;BME280;71676;50.998;7.098;2024-01-27T07:52:39;103015.34;;;0.58;63.46
76285;BME280;71676;50.998;7.098;2024-01-27T07:55:07;103014.19;;;0.65;63.82
76285;BME280;71676;50.998;7.098;2024-01-27T07:57:33;103026.53;;;0.71;62.79
76285;BME280;71676;50.998;7.098;2024-01-27T08:00:00;103031.84;;;0.64;64.12
76285;BME280;71676;50.998;7.098;2024-01-27T08:02:27;103036.31;;;0.66;63.30
76285;BME280;71676;50.998;7.098;2024-01-27T08:04:54;103038.69;;;0.75;63.18
76285;BME280;71676;50.998;7.098;2024-01-27T08:07:22;103032.34;;;0.80;63.47
76285;BME280;71676;50.998;7.098;2024-01-27T08:09:48;103030.97;;;0.83;62.77
76285;BME280;71676;50.998;7.098;2024-01-27T08:12:15;103040.88;;;0.90;62.37
76285;BME280;71676;50.998;7.098;2024-01-27T08:14:42;103048.19;;;0.97;62.62
76285;BME280;71676;50.998;7.098;2024-01-27T08:17:09;103040.84;;;1.00;62.91
76285;BME280;71676;50.998;7.098;2024-01-27T08:19:36;103048.19;;;1.07;62.66
76285;BME280;71676;50.998;7.098;2024-01-27T08:22:03;103044.84;;;1.28;61.94
76285;BME280;71676;50.998;7.098;2024-01-27T08:24:31;103040.13;;;1.43;61.32
76285;BME280;71676;50.998;7.098;2024-01-27T08:26:58;103038.56;;;1.45;61.03
76285;BME280;71676;50.998;7.098;2024-01-27T08:29:25;103038.69;;;1.46;61.74
76285;BME280;71676;50.998;7.098;2024-01-27T08:31:52;103040.00;;;1.31;64.48
76285;BME280;71676;50.998;7.098;2024-01-27T08:34:19;103041.41;;;1.28;63.23
76285;BME280;71676;50.998;7.098;2024-01-27T08:36:45;103044.50;;;1.24;64.79
76285;BME280;71676;50.998;7.098;2024-01-27T08:39:12;103027.50;;;1.03;64.31
76285;BME280;71676;50.998;7.098;2024-01-27T08:41:40;103055.69;;;0.96;65.80
76285;BME280;71676;50.998;7.098;2024-01-27T08:44:07;103061.31;;;0.92;66.09
76285;BME280;71676;50.998;7.098;2024-01-27T08:46:33;103067.91;;;0.90;66.45
76285;BME280;71676;50.998;7.098;2024-01-27T08:49:00;103068.41;;;0.96;65.91
76285;BME280;71676;50.998;7.098;2024-01-27T08:51:27;103067.66;;;0.87;66.70
76285;BME280;71676;50.998;7.098;2024-01-27T08:53:53;103072.34;;;0.92;66.45
76285;BME280;71676;50.998;7.098;2024-01-27T08:56:20;103073.09;;;0.91;66.50
76285;BME280;71676;50.998;7.098;2024-01-27T08:58:48;103062.66;;;0.98;66.47
76285;BME280;71676;50.998;7.098;2024-01-27T09:01:16;103059.88;;;1.05;66.49
76285;BME280;71676;50.998;7.098;2024-01-27T09:03:42;103060.50;;;1.13;66.27
76285;BME280;71676;50.998;7.098;2024-01-27T09:06:09;103054.66;;;1.14;66.46
76285;BME280;71676;50.998;7.098;2024-01-27T09:08:36;103052.38;;;1.17;65.77
76285;BME280;71676;50.998;7.098;2024-01-27T09:11:03;103038.50;;;1.23;65.92
76285;BME280;71676;50.998;7.098;2024-01-27T09:13:33;103038.88;;;1.28;65.80
76285;BME280;71676;50.998;7.098;2024-01-27T09:16:01;103039.78;;;1.28;64.96
76285;BME280;71676;50.998;7.098;2024-01-27T09:18:27;103035.59;;;1.19;65.45
76285;BME280;71676;50.998;7.098;2024-01-27T09:20:54;103037.59;;;1.33;65.03
76285;BME280;71676;50.998;7.098;2024-01-27T09:23:21;103034.81;;;1.30;65.44
76285;BME280;71676;50.998;7.098;2024-01-27T09:25:47;103031.44;;;1.51;63.89
76285;BME280;71676;50.998;7.098;2024-01-27T09:28:14;103036.72;;;1.64;64.38
76285;BME280;71676;50.998;7.098;2024-01-27T09:30:41;103042.69;;;1.64;63.87
76285;BME280;71676;50.998;7.098;2024-01-27T09:33:09;103042.38;;;1.50;64.46
76285;BME280;71676;50.998;7.098;2024-01-27T09:35:36;103033.31;;;1.63;63.82
76285;BME280;71676;50.998;7.098;2024-01-27T09:38:03;103035.16;;;1.76;63.94
76285;BME280;71676;50.998;7.098;2024-01-27T09:40:30;103031.22;;;1.91;63.50
76285;BME280;71676;50.998;7.098;2024-01-27T09:42:58;103025.91;;;1.98;63.09
76285;BME280;71676;50.998;7.098;2024-01-27T09:45:26;103021.28;;;2.04;62.82
76285;BME280;71676;50.998;7.098;2024-01-27T09:47:53;103017.09;;;2.05;62.28
76285;BME280;71676;50.998;7.098;2024-01-27T09:50:24;103011.50;;;2.20;62.29
76285;BME280;71676;50.998;7.098;2024-01-27T09:52:51;103018.19;;;2.30;61.57
76285;BME280;71676;50.998;7.098;2024-01-27T09:55:18;103022.19;;;2.26;61.43
76285;BME280;71676;50.998;7.098;2024-01-27T09:57:45;103020.53;;;2.38;61.56
76285;BME280;71676;50.998;7.098;2024-01-27T10:00:13;103018.56;;;2.46;61.62
76285;BME280;71676;50.998;7.098;2024-01-27T10:02:42;102977.94;;;2.36;60.96
76285;BME280;71676;50.998;7.098;2024-01-27T10:05:09;103014.56;;;2.71;61.05
76285;BME280;71676;50.998;7.098;2024-01-27T10:07:39;103008.94;;;2.86;60.71
76285;BME280;71676;50.998;7.098;2024-01-27T10:10:07;103019.66;;;2.94;61.17
76285;BME280;71676;50.998;7.098;2024-01-27T10:12:35;103027.66;;;3.10;60.43
76285;BME280;71676;50.998;7.098;2024-01-27T10:15:05;103028.00;;;3.26;60.09
76285;BME280;71676;50.998;7.098;2024-01-27T10:17:31;103025.28;;;3.82;58.23
76285;BME280;71676;50.998;7.098;2024-01-27T10:20:02;103026.66;;;4.38;57.79
76285;BME280;71676;50.998;7.098;2024-01-27T10:22:38;103032.75;;;4.64;56.73
76285;BME280;71676;50.998;7.098;2024-01-27T10:25:06;103031.31;;;4.81;54.77
76285;BME280;71676;50.998;7.098;2024-01-27T10:27:33;103035.88;;;4.98;55.45
76285;BME280;71676;50.998;7.098;2024-01-27T10:30:00;103038.75;;;5.16;54.01
76285;BME280;71676;50.998;7.098;2024-01-27T10:32:26;103040.72;;;5.20;53.32
76285;BME280;71676;50.998;7.098;2024-01-27T10:35:01;103043.81;;;5.81;51.83
76285;BME280;71676;50.998;7.098;2024-01-27T10:37:28;103034.81;;;6.56;50.49
76285;BME280;71676;50.998;7.098;2024-01-27T10:40:01;103035.53;;;6.53;50.75
76285;BME280;71676;50.998;7.098;2024-01-27T10:42:28;103026.56;;;6.89;50.79
76285;BME280;71676;50.998;7.098;2024-01-27T10:44:58;103034.25;;;7.48;49.31
76285;BME280;71676;50.998;7.098;2024-01-27T10:47:27;103035.03;;;7.62;48.78
76285;BME280;71676;50.998;7.098;2024-01-27T10:49:55;103014.44;;;8.23;48.04
76285;BME280;71676;50.998;7.098;2024-01-27T10:52:24;103025.63;;;9.25;44.92
76285;BME280;71676;50.998;7.098;2024-01-27T10:54:59;103025.00;;;9.83;41.04
76285;BME280;71676;50.998;7.098;2024-01-27T10:57:30;103025.41;;;9.38;42.53
76285;BME280;71676;50.998;7.098;2024-01-27T10:59:57;103026.31;;;8.87;45.15
76285;BME280;71676;50.998;7.098;2024-01-27T11:02:24;103019.16;;;8.81;44.88
76285;BME280;71676;50.998;7.098;2024-01-27T11:04:51;103028.53;;;8.31;43.93
76285;BME280;71676;50.998;7.098;2024-01-27T11:07:20;103041.75;;;8.21;47.70
76285;BME280;71676;50.998;7.098;2024-01-27T11:09:49;103025.72;;;8.43;44.97
76285;BME280;71676;50.998;7.098;2024-01-27T11:12:17;103004.63;;;8.16;46.39
76285;BME280;71676;50.998;7.098;2024-01-27T11:14:46;103035.16;;;8.26;46.86
76285;BME280;71676;50.998;7.098;2024-01-27T11:17:13;103035.63;;;8.19;46.08
76285;BME280;71676;50.998;7.098;2024-01-27T11:19:40;103032.97;;;8.02;45.57
76285;BME280;71676;50.998;7.098;2024-01-27T11:22:07;103025.63;;;7.62;45.29
76285;BME280;71676;50.998;7.098;2024-01-27T11:24:33;103003.25;;;7.60;47.60
76285;BME280;71676;50.998;7.098;2024-01-27T11:27:01;103019.53;;;7.75;47.79
76285;BME280;71676;50.998;7.098;2024-01-27T11:29:28;103032.53;;;7.78;46.52
76285;BME280;71676;50.998;7.098;2024-01-27T11:31:56;103030.22;;;7.23;46.15
76285;BME280;71676;50.998;7.098;2024-01-27T11:34:23;103028.00;;;7.29;48.93
76285;BME280;71676;50.998;7.098;2024-01-27T11:36:49;103022.44;;;7.36;49.06
76285;BME280;71676;50.998;7.098;2024-01-27T11:39:23;103006.75;;;7.46;47.24
76285;BME280;71676;50.998;7.098;2024-01-27T11:41:51;103006.47;;;7.72;48.33
76285;BME280;71676;50.998;7.098;2024-01-27T11:44:18;103012.16;;;7.81;48.06
76285;BME280;71676;50.998;7.098;2024-01-27T11:46:45;103011.84;;;7.91;45.18
76285;BME280;71676;50.998;7.098;2024-01-27T11:49:15;103001.00;;;7.81;46.54
76285;BME280;71676;50.998;7.098;2024-01-27T11:51:43;103000.75;;;7.92;46.86
76285;BME280;71676;50.998;7.098;2024-01-27T11:54:10;103004.53;;;7.83;47.88
76285;BME280;71676;50.998;7.098;2024-01-27T11:56:38;103015.94;;;7.88;47.31
76285;BME280;71676;50.998;7.098;2024-01-27T11:59:05;103014.75;;;7.97;46.53
76285;BME280;71676;50.998;7.098;2024-01-27T12:01:31;103008.63;;;7.95;46.56
76285;BME280;71676;50.998;7.098;2024-01-27T12:03:57;103013.16;;;7.99;46.36
76285;BME280;71676;50.998;7.098;2024-01-27T12:06:25;103021.00;;;8.02;45.97
76285;BME280;71676;50.998;7.098;2024-01-27T12:08:53;103018.81;;;7.94;44.53
76285;BME280;71676;50.998;7.098;2024-01-27T12:11:21;103011.84;;;7.91;46.88
76285;BME280;71676;50.998;7.098;2024-01-27T12:13:47;103017.38;;;7.99;46.19
76285;BME280;71676;50.998;7.098;2024-01-27T12:16:15;103015.63;;;7.98;46.41
76285;BME280;71676;50.998;7.098;2024-01-27T12:18:42;103009.22;;;7.90;44.44
76285;BME280;71676;50.998;7.098;2024-01-27T12:21:12;103023.72;;;7.89;44.86
76285;BME280;71676;50.998;7.098;2024-01-27T12:23:50;103022.22;;;7.93;47.36
76285;BME280;71676;50.998;7.098;2024-01-27T12:26:17;103021.47;;;7.95;46.76
76285;BME280;71676;50.998;7.098;2024-01-27T12:28:45;103014.97;;;7.71;45.47
76285;BME280;71676;50.998;7.098;2024-01-27T12:31:12;103013.22;;;7.85;46.10
76285;BME280;71676;50.998;7.098;2024-01-27T12:33:39;103003.19;;;7.89;45.95
76285;BME280;71676;50.998;7.098;2024-01-27T12:36:07;102999.94;;;7.93;46.17
76285;BME280;71676;50.998;7.098;2024-01-27T12:38:35;102997.88;;;8.02;47.90
76285;BME280;71676;50.998;7.098;2024-01-27T12:41:04;102988.41;;;8.17;45.50
76285;BME280;71676;50.998;7.098;2024-01-27T12:43:30;102988.81;;;8.25;44.63
76285;BME280;71676;50.998;7.098;2024-01-27T12:45:57;102996.25;;;8.36;46.29
76285;BME280;71676;50.998;7.098;2024-01-27T12:48:24;102994.09;;;8.44;45.80
76285;BME280;71676;50.998;7.098;2024-01-27T12:50:52;102987.88;;;8.56;44.79
76285;BME280;71676;50.998;7.098;2024-01-27T12:53:19;102985.34;;;8.24;42.83
76285;BME280;71676;50.998;7.098;2024-01-27T12:55:45;102979.91;;;8.18;45.61
76285;BME280;71676;50.998;7.098;2024-01-27T12:58:13;102971.22;;;8.32;43.25
76285;BME280;71676;50.998;7.098;2024-01-27T13:00:40;102987.41;;;8.47;44.05